Tingley, Iowa
Current Conditions -  °F | °C
As of 11:10 AM on Saturday 20 Dec 2014 (Local Time) from KCSQ Reporting Station
Haze Haze  
Wind Chill: 24°   Ceiling: 300
Heat Index: 32°   Visibility: 1.2mi
Dew Point: 32°   Wind: 9mph
Humidity: 100%   Direction: 170°S
Pressure: 30.14"   Gusts: NA
Location:  40.85°N, 94.2°W
Report Text: KCSQ 201710Z AUTO 17008KT 1 1/4SM BR OVC003 M00/00 A3014 RMK AO2
Loading
Personal Weather Stations






























Interactive Weather Map New forecast layout! Learn more

10-Day Weather Forecast

Advertisements
Track Severe Weather on mobile